createdAt,value
2019-05-26T00:03:33.659Z,14.20
2019-05-26T00:08:36.122Z,12.87
2019-05-26T00:13:38.577Z,11.43
2019-05-26T00:18:41.055Z,11.93
2019-05-26T00:23:43.519Z,13.37
2019-05-26T00:28:45.992Z,13.50
2019-05-26T00:33:48.519Z,15.57
2019-05-26T00:38:50.982Z,13.73
2019-05-26T00:43:53.468Z,13.63
2019-05-26T00:48:56.529Z,14.90
2019-05-26T00:53:59.169Z,16.67
2019-05-26T00:59:01.631Z,15.97
2019-05-26T01:04:04.118Z,15.90
2019-05-26T01:09:06.623Z,16.40
2019-05-26T01:14:09.106Z,13.80
2019-05-26T01:19:11.576Z,14.17
2019-05-26T01:24:14.051Z,19.63
2019-05-26T01:29:16.527Z,14.37
2019-05-26T01:34:19.022Z,16.07
2019-05-26T01:39:21.491Z,20.67
2019-05-26T01:44:24.025Z,15.70
2019-05-26T01:49:26.453Z,17.60
2019-05-26T01:54:28.927Z,17.57
2019-05-26T01:59:31.401Z,15.97
2019-05-26T02:04:33.892Z,16.20
2019-05-26T02:09:36.356Z,18.67
2019-05-26T02:14:38.870Z,15.60
2019-05-26T02:19:41.345Z,16.57
2019-05-26T02:24:43.818Z,14.97
2019-05-26T02:29:46.282Z,15.63
2019-05-26T02:34:48.749Z,15.57
2019-05-26T02:39:51.398Z,17.47
2019-05-26T02:44:58.899Z,17.57
2019-05-26T02:49:56.323Z,17.93
2019-05-26T02:54:58.799Z,20.50
2019-05-26T03:00:01.265Z,20.77
2019-05-26T03:05:03.764Z,18.83
2019-05-26T03:10:06.226Z,15.80
2019-05-26T03:15:08.702Z,15.00
2019-05-26T03:20:14.375Z,15.73
2019-05-26T03:25:16.849Z,15.93
2019-05-26T03:30:19.313Z,16.43
2019-05-26T03:35:21.830Z,19.17
2019-05-26T03:40:24.301Z,16.63
2019-05-26T03:45:38.996Z,15.07
2019-05-26T03:50:41.473Z,16.27
2019-05-26T03:55:43.956Z,16.27
2019-05-26T04:00:46.424Z,17.00
2019-05-26T04:05:48.886Z,14.37
2019-05-26T04:10:51.358Z,20.67
2019-05-26T04:15:53.861Z,14.70
2019-05-26T04:20:56.335Z,14.93
2019-05-26T04:25:58.790Z,13.73
2019-05-26T04:31:01.325Z,12.97
2019-05-26T04:36:03.814Z,13.07
2019-05-26T04:41:06.368Z,14.57
2019-05-26T04:46:10.654Z,16.87
2019-05-26T04:51:13.046Z,13.87
2019-05-26T04:56:15.509Z,12.03
2019-05-26T05:01:18.023Z,13.23
2019-05-26T05:06:20.498Z,12.43
2019-05-26T05:11:23.031Z,13.00
2019-05-26T05:16:25.546Z,13.33
2019-05-26T05:21:28.505Z,13.13
2019-05-26T05:26:31.001Z,11.40
2019-05-26T05:31:33.504Z,11.20
2019-05-26T05:36:36.627Z,10.33
2019-05-26T05:41:40.732Z,10.50
2019-05-26T05:46:43.184Z,9.87
2019-05-26T05:51:45.655Z,13.00
2019-05-26T05:56:48.108Z,8.97
2019-05-26T06:01:50.580Z,8.60
2019-05-26T06:06:53.037Z,8.07
2019-05-26T06:11:57.049Z,8.90
2019-05-26T06:16:57.970Z,9.77
2019-05-26T06:22:00.429Z,13.37
2019-05-26T06:27:02.896Z,9.63
2019-05-26T06:32:05.695Z,9.20
2019-05-26T06:37:07.829Z,8.73
2019-05-26T06:42:12.962Z,10.47
2019-05-26T06:47:13.348Z,9.40
2019-05-26T06:52:15.821Z,11.77
2019-05-26T06:57:18.293Z,13.67
2019-05-26T07:02:20.757Z,8.73
2019-05-26T07:07:23.216Z,8.40
2019-05-26T07:12:26.997Z,9.23
2019-05-26T07:17:29.489Z,19.80
2019-05-26T07:22:31.955Z,10.00
2019-05-26T07:27:34.419Z,6.40
2019-05-26T07:32:36.874Z,6.80
2019-05-26T07:37:39.379Z,9.00
2019-05-26T07:42:41.868Z,7.60
2019-05-26T07:47:45.153Z,6.43
2019-05-26T07:52:47.624Z,14.27
2019-05-26T07:57:50.093Z,6.53
2019-05-26T08:02:52.553Z,5.83
2019-05-26T08:08:09.633Z,8.37
2019-05-26T08:12:57.531Z,9.87
2019-05-26T08:18:00.020Z,6.73
2019-05-26T08:23:02.479Z,9.40
2019-05-26T08:28:04.952Z,8.13
2019-05-26T08:33:07.396Z,6.40
2019-05-26T08:38:09.872Z,7.77
2019-05-26T08:43:12.312Z,5.72
2019-05-26T08:48:14.799Z,9.18
2019-05-26T08:53:17.250Z,3.65
2019-05-26T08:58:19.714Z,5.50
2019-05-26T09:03:22.204Z,3.87
2019-05-26T09:08:24.665Z,4.55
2019-05-26T09:13:27.132Z,3.80
2019-05-26T09:18:29.598Z,3.50
2019-05-26T09:23:32.061Z,4.87
2019-05-26T09:28:34.523Z,4.40
2019-05-26T09:33:37.047Z,5.15
2019-05-26T09:38:39.446Z,3.42
2019-05-26T09:43:41.925Z,3.60
2019-05-26T09:48:44.409Z,3.55
2019-05-26T09:54:00.796Z,5.95
2019-05-26T09:58:49.476Z,2.90
2019-05-26T10:03:51.947Z,2.75
2019-05-26T10:08:54.420Z,2.62
2019-05-26T10:13:56.903Z,3.47
2019-05-26T10:18:59.370Z,3.33
2019-05-26T10:24:01.860Z,4.25
2019-05-26T10:29:04.344Z,3.50
2019-05-26T10:34:07.896Z,2.78
2019-05-26T10:39:10.365Z,1.75
2019-05-26T10:44:12.818Z,4.60
2019-05-26T10:49:15.288Z,2.17
2019-05-26T10:54:17.771Z,4.35
2019-05-26T10:59:20.221Z,5.03
2019-05-26T11:04:22.735Z,3.60
2019-05-26T11:09:25.222Z,4.17
2019-05-26T11:14:27.686Z,5.87
2019-05-26T11:19:30.162Z,4.93
2019-05-26T11:24:32.631Z,3.93
2019-05-26T11:29:35.112Z,6.10
2019-05-26T11:34:37.565Z,3.20
2019-05-26T11:39:40.023Z,2.77
2019-05-26T11:44:42.466Z,4.37
2019-05-26T11:49:44.943Z,3.55
2019-05-26T11:54:47.418Z,3.80
2019-05-26T11:59:49.887Z,3.83
2019-05-26T12:04:52.522Z,2.35
2019-05-26T12:09:55.015Z,2.42
2019-05-26T12:14:57.530Z,2.50
2019-05-26T12:20:00.147Z,2.78
2019-05-26T12:25:02.517Z,1.67
2019-05-26T12:30:07.947Z,3.22
2019-05-26T12:35:10.406Z,4.37
2019-05-26T12:40:12.883Z,2.50
2019-05-26T12:45:15.352Z,2.30
2019-05-26T12:50:17.862Z,3.45
2019-05-26T12:55:20.326Z,3.12
2019-05-26T13:00:22.785Z,2.63
2019-05-26T13:05:25.282Z,2.80
2019-05-26T13:10:28.017Z,2.07
2019-05-26T13:15:30.492Z,3.30
2019-05-26T13:20:32.965Z,4.43
2019-05-26T13:25:35.499Z,1.90
2019-05-26T13:30:37.993Z,5.53
2019-05-26T13:35:40.465Z,3.08
2019-05-26T13:40:42.990Z,1.60
2019-05-26T13:45:45.405Z,2.70
2019-05-26T13:50:47.876Z,2.07
2019-05-26T13:55:50.338Z,3.97
2019-05-26T14:00:52.823Z,2.57
2019-05-26T14:05:55.289Z,3.80
2019-05-26T14:10:57.764Z,2.07
2019-05-26T14:16:00.198Z,1.77
2019-05-26T14:21:02.670Z,5.83
2019-05-26T14:26:05.119Z,3.57
2019-05-26T14:31:07.595Z,2.17
2019-05-26T14:36:10.067Z,4.03
2019-05-26T14:41:12.552Z,3.27
2019-05-26T14:46:15.005Z,4.00
2019-05-26T14:51:17.483Z,3.40
2019-05-26T14:56:19.945Z,3.33
2019-05-26T15:01:22.413Z,2.70
2019-05-26T15:06:24.859Z,3.23
2019-05-26T15:11:27.345Z,2.20
2019-05-26T15:16:29.811Z,3.23
2019-05-26T15:21:32.302Z,2.77
2019-05-26T15:26:34.785Z,3.40
2019-05-26T15:31:37.257Z,2.33
2019-05-26T15:36:39.723Z,4.17
2019-05-26T15:41:42.227Z,2.67
2019-05-26T15:46:44.794Z,2.50
2019-05-26T15:51:47.158Z,2.00
2019-05-26T15:56:49.651Z,2.60
2019-05-26T16:01:52.107Z,4.20
2019-05-26T16:06:54.634Z,2.30
2019-05-26T16:11:57.115Z,2.70
2019-05-26T16:16:59.568Z,5.13
2019-05-26T16:22:02.090Z,6.27
2019-05-26T16:27:18.193Z,4.47
2019-05-26T16:32:07.057Z,4.23
2019-05-26T16:37:09.556Z,2.33
2019-05-26T16:42:12.016Z,4.30
2019-05-26T16:47:14.485Z,3.40
2019-05-26T16:52:16.962Z,2.60
2019-05-26T16:57:19.451Z,3.73
2019-05-26T17:02:21.918Z,2.90
2019-05-26T17:07:24.379Z,3.03
2019-05-26T17:12:26.846Z,2.87
2019-05-26T17:17:29.315Z,1.87
2019-05-26T17:22:31.780Z,2.13
2019-05-26T17:27:34.270Z,1.70
2019-05-26T17:32:36.745Z,2.60
2019-05-26T17:37:39.214Z,4.03
2019-05-26T17:42:41.681Z,4.77
2019-05-26T17:47:44.159Z,4.33
2019-05-26T17:52:47.339Z,2.40
2019-05-26T17:57:49.814Z,2.10
2019-05-26T18:02:52.301Z,4.20
2019-05-26T18:07:54.801Z,3.00
2019-05-26T18:12:57.326Z,1.40
2019-05-26T18:17:59.742Z,3.57
2019-05-26T18:23:02.275Z,1.47
2019-05-26T18:28:04.750Z,1.60
2019-05-26T18:33:07.207Z,5.03
2019-05-26T18:38:09.697Z,2.60
2019-05-26T18:43:12.221Z,1.50
2019-05-26T18:48:14.732Z,3.13
2019-05-26T18:53:17.192Z,1.50
2019-05-26T18:58:19.690Z,1.57
2019-05-26T19:03:22.216Z,1.97
2019-05-26T19:08:24.716Z,1.70
2019-05-26T19:13:27.224Z,1.47
2019-05-26T19:18:29.711Z,1.60
2019-05-26T19:23:32.331Z,3.43
2019-05-26T19:28:34.798Z,1.53
2019-05-26T19:33:37.252Z,1.90
2019-05-26T19:38:39.719Z,4.10
2019-05-26T19:43:42.201Z,2.00
2019-05-26T19:48:44.686Z,2.13
2019-05-26T19:53:47.147Z,2.40
2019-05-26T19:58:49.627Z,1.83
2019-05-26T20:03:52.096Z,1.87
2019-05-26T20:08:54.571Z,1.93
2019-05-26T20:13:57.033Z,3.43
2019-05-26T20:18:59.489Z,4.27
2019-05-26T20:24:01.952Z,7.33
2019-05-26T20:29:04.424Z,4.07
2019-05-26T20:34:06.896Z,5.00
2019-05-26T20:39:09.354Z,3.93
2019-05-26T20:44:11.815Z,9.97
2019-05-26T20:49:14.278Z,4.33
2019-05-26T20:54:16.735Z,8.47
2019-05-26T20:59:19.196Z,2.80
2019-05-26T21:04:21.812Z,5.53
2019-05-26T21:09:24.265Z,2.90
2019-05-26T21:14:26.726Z,2.80
2019-05-26T21:19:29.190Z,3.03
2019-05-26T21:24:31.658Z,3.67
2019-05-26T21:29:34.132Z,3.27
2019-05-26T21:34:36.587Z,2.97
2019-05-26T21:39:39.027Z,5.87
2019-05-26T21:44:41.493Z,3.30
2019-05-26T21:49:43.953Z,4.03
2019-05-26T21:54:46.433Z,4.13
2019-05-26T21:59:48.928Z,3.77
2019-05-26T22:04:51.455Z,4.20
2019-05-26T22:09:53.904Z,3.73
2019-05-26T22:14:56.356Z,4.83
2019-05-26T22:19:58.815Z,6.53
2019-05-26T22:25:01.347Z,5.13
2019-05-26T22:30:03.869Z,6.93
2019-05-26T22:35:06.284Z,5.00
2019-05-26T22:40:08.762Z,6.80
2019-05-26T22:45:11.213Z,5.60
2019-05-26T22:50:13.671Z,4.03
2019-05-26T22:55:16.136Z,4.80
2019-05-26T23:00:18.609Z,4.00
2019-05-26T23:05:21.071Z,3.73
2019-05-26T23:10:23.544Z,3.73
2019-05-26T23:15:25.993Z,3.90
2019-05-26T23:20:28.461Z,4.20
2019-05-26T23:25:30.936Z,4.47
2019-05-26T23:30:33.405Z,4.40
2019-05-26T23:35:35.859Z,6.20
2019-05-26T23:40:38.309Z,4.70
2019-05-26T23:45:40.787Z,4.50
2019-05-26T23:50:43.233Z,4.47
2019-05-26T23:55:45.696Z,5.83
